Time;durP1;ratioP1;P1;durP2;ratioP2;P2;SDS_P1;SDS_P2;PMS_P1;PMS_P2;Temp;Humidity;BMP_temperature;BMP_pressure;BME280_temperature;BME280_humidity;BME280_pressure;Samples;Min_cycle;Max_cycle;Signal;HPM_P1;HPM_P2
2022/03/21 00:00:52;;;;;;;;;;;;;;;;;;5087689;28;1034;-75
2022/03/21 00:03:18;;;;;;;;;;;;;;;;;;5085665;28;1164;-75
2022/03/21 00:05:48;;;;;;;;;;;;;;;;;;5084652;28;1143;-74
2022/03/21 00:08:17;;;;;;;;;;;;;;;;;;5063682;28;1196;-76
2022/03/21 00:10:43;;;;;;;;;;;;;;;;;;5075493;28;1436;-76
2022/03/21 00:13:08;;;;;;;;;;;;;;;;;;5100168;28;1877;-75
2022/03/21 00:15:34;;;;;;;;;;;;;;;;;;5051905;28;1340;-75
2022/03/21 00:18:01;;;;;;;;;;;;;;;;;;5098470;28;1143;-75
2022/03/21 00:20:27;;;;;;;;;;;;;;;;;;5084016;28;1324;-75
2022/03/21 00:22:53;;;;;;;;;;;;;;;;;;5085331;28;1160;-75
2022/03/21 00:25:19;;;;;;;;;;;;;;;;;;5076058;28;1253;-75
2022/03/21 00:27:48;;;;;;;;;;;;;;;;;;5083811;28;1483;-75
2022/03/21 00:30:15;;;;;;;;;;;;;;;;;;5072667;28;1435;-76
2022/03/21 00:32:41;;;;;;;;;;;;;;;;;;5104265;28;1967;-76
2022/03/21 00:35:07;;;;;;;;;;;;;;;;;;5103913;28;1257;-76
2022/03/21 00:37:34;;;;;;;;;;;;;;;;;;5101281;28;1163;-76
2022/03/21 00:39:59;;;;;;;;;;;;;;;;;;5103696;28;1087;-76
2022/03/21 00:42:25;;;;;;;;;;;;;;;;;;5078632;28;1200;-75
2022/03/21 00:44:51;;;;;;;;;;;;;;;;;;5089108;28;1222;-74
2022/03/21 00:47:17;;;;;;;;;;;;;;;;;;5074796;28;1290;-75
2022/03/21 00:49:42;;;;;;;;;;;;;;;;;;5090364;28;1129;-74
2022/03/21 00:52:08;;;;;;;;;;;;;;;;;;5071050;28;1243;-73
2022/03/21 00:54:33;;;;;;;;;;;;;;;;;;5061493;28;1965;-74
2022/03/21 00:56:58;;;;;;;;;;;;;;;;;;5064884;28;1120;-74
2022/03/21 00:59:24;;;;;;;;;;;;;;;;;;5050231;28;1188;-76
2022/03/21 01:01:50;;;;;;;;;;;;;;;;;;5061704;28;1258;-73
2022/03/21 01:04:16;;;;;;;;;;;;;;;;;;5059279;28;1310;-72
2022/03/21 01:06:41;;;;;;;;;;;;;;;;;;5065391;28;1136;-74
2022/03/21 01:09:06;;;;;;;;;;;;;;;;;;5073629;28;1226;-75
2022/03/21 01:11:32;;;;;;;;;;;;;;;;;;5075008;28;1196;-75
2022/03/21 01:13:57;;;;;;;;;;;;;;;;;;5069806;28;1925;-75
2022/03/21 01:16:22;;;;;;;;;;;;;;;;;;5070776;28;1385;-75
2022/03/21 01:18:47;;;;;;;;;;;;;;;;;;5086969;28;1155;-75
2022/03/21 01:21:13;;;;;;;;;;;;;;;;;;5066755;28;1290;-75
2022/03/21 01:23:38;;;;;;;;;;;;;;;;;;5091783;28;1203;-76
2022/03/21 01:26:04;;;;;;;;;;;;;;;;;;5067234;28;1159;-74
2022/03/21 01:28:29;;;;;;;;;;;;;;;;;;5068104;28;1486;-74
2022/03/21 01:30:58;;;;;;;;;;;;;;;;;;5057055;28;1180;-75
2022/03/21 01:33:23;;;;;;;;;;;;;;;;;;5096271;28;1914;-76
2022/03/21 01:35:48;;;;;;;;;;;;;;;;;;5068226;28;1193;-76
2022/03/21 01:38:13;;;;;;;;;;;;;;;;;;5101837;28;1104;-76
2022/03/21 01:40:39;;;;;;;;;;;;;;;;;;5053178;28;1172;-76
2022/03/21 01:43:10;;;;;;;;;;;;;;;;;;5069117;28;1180;-74
2022/03/21 01:45:36;;;;;;;;;;;;;;;;;;5066903;28;1297;-76
2022/03/21 01:48:01;;;;;;;;;;;;;;;;;;5063093;28;1411;-73
2022/03/21 01:50:27;;;;;;;;;;;;;;;;;;5084477;28;1183;-75
2022/03/21 01:55:45;;;;;;;;;;;;;;;;;;5102662;28;1049;-74
2022/03/21 01:58:14;;;;;;;;;;;;;;;;;;5100008;28;1349;-74
2022/03/21 02:00:43;;;;;;;;;;;;;;;;;;5069520;28;1250;-76
2022/03/21 02:03:08;;;;;;;;;;;;;;;;;;5065781;28;1244;-75
2022/03/21 02:05:36;;;;;;;;;;;;;;;;;;5078252;28;1278;-74
2022/03/21 02:08:01;;;;;;;;;;;;;;;;;;5074161;28;1311;-76
2022/03/21 02:10:27;;;;;;;;;;;;;;;;;;5083589;28;1212;-75
2022/03/21 02:12:52;;;;;;;;;;;;;;;;;;5084368;28;1893;-74
2022/03/21 02:15:19;;;;;;;;;;;;;;;;;;5064040;28;1274;-75
2022/03/21 02:17:46;;;;;;;;;;;;;;;;;;5047334;28;1141;-74
2022/03/21 02:20:11;;;;;;;;;;;;;;;;;;5081029;28;1108;-74
2022/03/21 02:22:48;;;;;;;;;;;;;;;;;;5091460;28;1183;-74
2022/03/21 02:25:30;;;;;;;;;;;;;;;;;;5101298;28;1043;-73
2022/03/21 02:27:58;;;;;;;;;;;;;;;;;;5077719;28;1283;-75
2022/03/21 02:30:26;;;;;;;;;;;;;;;;;;5074563;28;1097;-74
2022/03/21 02:32:52;;;;;;;;;;;;;;;;;;5084950;28;1913;-74
2022/03/21 02:35:18;;;;;;;;;;;;;;;;;;5101211;28;1258;-75
2022/03/21 02:37:45;;;;;;;;;;;;;;;;;;5081506;28;1270;-74
2022/03/21 02:40:10;;;;;;;;;;;;;;;;;;5087371;28;1321;-74
2022/03/21 02:42:36;;;;;;;;;;;;;;;;;;5083087;28;1263;-73
2022/03/21 02:45:01;;;;;;;;;;;;;;;;;;5101323;28;1218;-75
2022/03/21 02:47:27;;;;;;;;;;;;;;;;;;5085647;28;1202;-75
2022/03/21 02:49:53;;;;;;;;;;;;;;;;;;5103484;28;1163;-75
2022/03/21 02:52:19;;;;;;;;;;;;;;;;;;5079554;28;1262;-75
2022/03/21 02:54:44;;;;;;;;;;;;;;;;;;5085647;28;1902;-75
2022/03/21 02:57:09;;;;;;;;;;;;;;;;;;5099902;28;1294;-75
2022/03/21 02:59:34;;;;;;;;;;;;;;;;;;5084338;28;1300;-74
2022/03/21 03:02:02;;;;;;;;;;;;;;;;;;5083642;28;1201;-74
2022/03/21 03:04:27;;;;;;;;;;;;;;;;;;5066197;28;1239;-74
2022/03/21 03:06:56;;;;;;;;;;;;;;;;;;5081125;28;1171;-75
2022/03/21 03:09:21;;;;;;;;;;;;;;;;;;5062967;28;1202;-75
2022/03/21 03:11:47;;;;;;;;;;;;;;;;;;5064948;28;1166;-75
2022/03/21 03:14:12;;;;;;;;;;;;;;;;;;5080940;28;1959;-74
2022/03/21 03:16:38;;;;;;;;;;;;;;;;;;5083955;28;1258;-75
2022/03/21 03:19:06;;;;;;;;;;;;;;;;;;5063846;28;1550;-75
2022/03/21 03:21:36;;;;;;;;;;;;;;;;;;5066648;28;1215;-73
2022/03/21 03:24:02;;;;;;;;;;;;;;;;;;5065758;28;1214;-75
2022/03/21 03:26:28;;;;;;;;;;;;;;;;;;5082870;28;1136;-76
2022/03/21 03:28:53;;;;;;;;;;;;;;;;;;5082918;28;1210;-75
2022/03/21 03:31:18;;;;;;;;;;;;;;;;;;5083297;28;1203;-76
2022/03/21 03:33:45;;;;;;;;;;;;;;;;;;5104746;28;1973;-74
2022/03/21 03:36:11;;;;;;;;;;;;;;;;;;5095591;28;1127;-76
2022/03/21 03:38:37;;;;;;;;;;;;;;;;;;5067984;28;1223;-75
2022/03/21 03:41:03;;;;;;;;;;;;;;;;;;5084317;28;1312;-75
2022/03/21 03:43:29;;;;;;;;;;;;;;;;;;5080580;28;1368;-76
2022/03/21 03:45:57;;;;;;;;;;;;;;;;;;5102604;28;1135;-76
2022/03/21 03:48:22;;;;;;;;;;;;;;;;;;5064556;28;1343;-75
2022/03/21 03:50:48;;;;;;;;;;;;;;;;;;5077746;28;1269;-74
2022/03/21 03:53:14;;;;;;;;;;;;;;;;;;5098988;28;1952;-74
2022/03/21 03:55:39;;;;;;;;;;;;;;;;;;5066829;28;1306;-75
2022/03/21 03:58:05;;;;;;;;;;;;;;;;;;5096394;28;1085;-75
2022/03/21 04:00:30;;;;;;;;;;;;;;;;;;5062195;28;1215;-74
2022/03/21 04:05:39;;;;;;;;;;;;;;;;;;5080773;28;989;-76
2022/03/21 04:08:07;;;;;;;;;;;;;;;;;;5079224;28;1175;-75
2022/03/21 04:10:32;;;;;;;;;;;;;;;;;;5062828;28;1207;-75
2022/03/21 04:13:03;;;;;;;;;;;;;;;;;;5080272;28;1959;-74
2022/03/21 04:15:29;;;;;;;;;;;;;;;;;;5062504;28;1189;-74
2022/03/21 04:18:01;;;;;;;;;;;;;;;;;;5083933;28;1160;-75
2022/03/21 04:20:29;;;;;;;;;;;;;;;;;;5064588;28;1333;-75
2022/03/21 04:22:54;;;;;;;;;;;;;;;;;;5092335;28;1251;-75
2022/03/21 04:25:21;;;;;;;;;;;;;;;;;;5067871;28;1116;-76
2022/03/21 04:27:46;;;;;;;;;;;;;;;;;;5066846;28;1237;-74
2022/03/21 04:30:12;;;;;;;;;;;;;;;;;;5062885;28;1100;-74
2022/03/21 04:32:37;;;;;;;;;;;;;;;;;;5085820;28;1069;-75
2022/03/21 04:35:03;;;;;;;;;;;;;;;;;;5067797;28;1985;-75
2022/03/21 04:37:29;;;;;;;;;;;;;;;;;;5049879;28;1452;-76
2022/03/21 04:39:54;;;;;;;;;;;;;;;;;;5071528;28;1151;-76
2022/03/21 04:42:20;;;;;;;;;;;;;;;;;;5064494;28;1184;-76
2022/03/21 04:44:48;;;;;;;;;;;;;;;;;;5046446;28;1286;-75
2022/03/21 04:47:13;;;;;;;;;;;;;;;;;;5064059;28;1330;-75
2022/03/21 04:49:39;;;;;;;;;;;;;;;;;;5050138;28;1304;-76
2022/03/21 04:52:04;;;;;;;;;;;;;;;;;;5062548;28;1179;-76
2022/03/21 04:54:30;;;;;;;;;;;;;;;;;;5068236;28;1961;-76
2022/03/21 04:56:55;;;;;;;;;;;;;;;;;;5073915;28;1208;-75
2022/03/21 04:59:21;;;;;;;;;;;;;;;;;;5062748;28;1270;-75
2022/03/21 05:01:47;;;;;;;;;;;;;;;;;;5082071;28;1131;-74
2022/03/21 05:04:13;;;;;;;;;;;;;;;;;;5048660;28;1306;-74
2022/03/21 05:06:39;;;;;;;;;;;;;;;;;;5084256;28;1361;-74
2022/03/21 05:09:05;;;;;;;;;;;;;;;;;;5076489;28;1211;-74
2022/03/21 05:11:30;;;;;;;;;;;;;;;;;;5081179;28;1176;-73
2022/03/21 05:13:56;;;;;;;;;;;;;;;;;;5062810;28;1897;-73
2022/03/21 05:16:21;;;;;;;;;;;;;;;;;;5065462;28;1227;-75
2022/03/21 05:18:47;;;;;;;;;;;;;;;;;;5086316;28;1232;-74
2022/03/21 05:21:13;;;;;;;;;;;;;;;;;;5065081;28;1290;-75
2022/03/21 05:31:53;;;;;;;;;;;;;;;;;;5069124;28;1016;-74
2022/03/21 05:37:02;;;;;;;;;;;;;;;;;;5080696;28;1023;-74
2022/03/21 05:39:27;;;;;;;;;;;;;;;;;;5097965;28;1202;-76
2022/03/21 05:41:53;;;;;;;;;;;;;;;;;;5076497;28;1163;-75
2022/03/21 05:44:19;;;;;;;;;;;;;;;;;;5071267;28;1290;-73
2022/03/21 05:46:44;;;;;;;;;;;;;;;;;;5087686;28;1426;-75
2022/03/21 05:49:09;;;;;;;;;;;;;;;;;;5065029;28;1203;-76
2022/03/21 05:51:40;;;;;;;;;;;;;;;;;;5056615;28;1357;-75
2022/03/21 05:54:11;;;;;;;;;;;;;;;;;;5069964;28;1886;-73
2022/03/21 05:56:37;;;;;;;;;;;;;;;;;;5064745;28;1483;-75
2022/03/21 06:01:51;;;;;;;;;;;;;;;;;;5088998;28;1044;-74
2022/03/21 06:04:16;;;;;;;;;;;;;;;;;;5068750;28;1140;-73
2022/03/21 06:06:42;;;;;;;;;;;;;;;;;;5084499;28;1444;-74
2022/03/21 06:09:07;;;;;;;;;;;;;;;;;;5083598;28;1336;-76
2022/03/21 06:11:36;;;;;;;;;;;;;;;;;;5094123;28;1195;-74
2022/03/21 06:14:05;;;;;;;;;;;;;;;;;;5101868;28;1902;-75
2022/03/21 06:16:34;;;;;;;;;;;;;;;;;;5103201;28;1147;-75
2022/03/21 06:19:00;;;;;;;;;;;;;;;;;;5086602;28;1281;-76
2022/03/21 06:21:25;;;;;;;;;;;;;;;;;;5100961;28;1313;-75
2022/03/21 06:23:51;;;;;;;;;;;;;;;;;;5100564;28;1120;-74
2022/03/21 06:26:22;;;;;;;;;;;;;;;;;;5054565;28;1450;-73
2022/03/21 06:28:48;;;;;;;;;;;;;;;;;;5071480;28;1215;-75
2022/03/21 06:31:13;;;;;;;;;;;;;;;;;;5069398;28;1507;-74
2022/03/21 06:33:40;;;;;;;;;;;;;;;;;;5065359;28;1906;-74
2022/03/21 06:36:05;;;;;;;;;;;;;;;;;;5048985;28;1267;-75
2022/03/21 06:38:31;;;;;;;;;;;;;;;;;;5072724;28;1191;-75
2022/03/21 06:40:56;;;;;;;;;;;;;;;;;;5065952;28;1214;-75
2022/03/21 06:43:22;;;;;;;;;;;;;;;;;;5064915;28;1156;-74
2022/03/21 06:45:48;;;;;;;;;;;;;;;;;;5054430;28;1367;-74
2022/03/21 06:48:14;;;;;;;;;;;;;;;;;;5087011;28;1120;-73
2022/03/21 06:50:39;;;;;;;;;;;;;;;;;;5081244;28;1126;-74
2022/03/21 06:53:05;;;;;;;;;;;;;;;;;;5064635;28;1885;-75
2022/03/21 06:55:30;;;;;;;;;;;;;;;;;;5077227;28;1192;-75
2022/03/21 06:57:56;;;;;;;;;;;;;;;;;;5089758;28;1219;-74
2022/03/21 07:00:24;;;;;;;;;;;;;;;;;;5085790;28;1172;-74
2022/03/21 07:02:49;;;;;;;;;;;;;;;;;;5066625;28;1460;-74
2022/03/21 07:05:15;;;;;;;;;;;;;;;;;;5049221;28;1191;-75
2022/03/21 07:07:40;;;;;;;;;;;;;;;;;;5060034;28;1180;-75
2022/03/21 07:10:06;;;;;;;;;;;;;;;;;;5085423;28;1128;-75
2022/03/21 07:12:34;;;;;;;;;;;;;;;;;;5065182;28;1266;-76
2022/03/21 07:15:00;;;;;;;;;;;;;;;;;;5078639;28;1957;-74
2022/03/21 07:17:25;;;;;;;;;;;;;;;;;;5085785;28;1064;-74
2022/03/21 07:19:50;;;;;;;;;;;;;;;;;;5066898;28;1179;-75
2022/03/21 07:22:16;;;;;;;;;;;;;;;;;;5061289;28;1101;-74
2022/03/21 07:24:41;;;;;;;;;;;;;;;;;;5085186;28;1266;-74
2022/03/21 07:27:07;;;;;;;;;;;;;;;;;;5067338;28;1279;-74
2022/03/21 07:29:32;;;;;;;;;;;;;;;;;;5050099;28;1211;-74
2022/03/21 07:31:57;;;;;;;;;;;;;;;;;;5104939;28;1235;-75
2022/03/21 07:34:26;;;;;;;;;;;;;;;;;;5069181;28;1913;-75
2022/03/21 07:36:55;;;;;;;;;;;;;;;;;;5067970;28;1263;-75
2022/03/21 07:39:22;;;;;;;;;;;;;;;;;;5085336;28;1390;-75
2022/03/21 07:41:48;;;;;;;;;;;;;;;;;;5084780;28;1250;-75
2022/03/21 07:47:17;;;;;;;;;;;;;;;;;;5069408;28;1169;-75
2022/03/21 07:49:43;;;;;;;;;;;;;;;;;;5102751;28;1036;-75
2022/03/21 07:52:09;;;;;;;;;;;;;;;;;;5070838;28;1401;-75
2022/03/21 07:54:34;;;;;;;;;;;;;;;;;;5071453;28;1953;-75
2022/03/21 07:57:00;;;;;;;;;;;;;;;;;;5089821;28;1382;-74
2022/03/21 07:59:26;;;;;;;;;;;;;;;;;;5086852;28;1156;-74
2022/03/21 08:01:51;;;;;;;;;;;;;;;;;;5071883;28;1188;-75
2022/03/21 08:04:17;;;;;;;;;;;;;;;;;;5074702;28;1175;-74
2022/03/21 08:06:43;;;;;;;;;;;;;;;;;;5051150;28;1371;-75
2022/03/21 08:09:09;;;;;;;;;;;;;;;;;;5064273;28;1476;-75
2022/03/21 08:11:35;;;;;;;;;;;;;;;;;;5062010;28;1314;-75
2022/03/21 08:14:00;;;;;;;;;;;;;;;;;;5104932;28;1952;-74
2022/03/21 08:16:27;;;;;;;;;;;;;;;;;;5085753;28;1223;-74
2022/03/21 08:18:52;;;;;;;;;;;;;;;;;;5070193;28;1221;-75
2022/03/21 08:21:19;;;;;;;;;;;;;;;;;;5108426;28;1203;-74
2022/03/21 08:23:45;;;;;;;;;;;;;;;;;;5080809;28;1064;-75
2022/03/21 08:26:10;;;;;;;;;;;;;;;;;;5071484;28;1464;-76
2022/03/21 08:28:36;;;;;;;;;;;;;;;;;;5060473;28;1318;-75
2022/03/21 08:31:01;;;;;;;;;;;;;;;;;;5067105;28;1396;-75
2022/03/21 08:33:32;;;;;;;;;;;;;;;;;;5065946;28;1973;-75
2022/03/21 08:35:58;;;;;;;;;;;;;;;;;;5087394;28;1131;-76
2022/03/21 08:38:23;;;;;;;;;;;;;;;;;;5054140;28;1191;-74
2022/03/21 08:40:48;;;;;;;;;;;;;;;;;;5064483;28;1136;-74
2022/03/21 08:43:13;;;;;;;;;;;;;;;;;;5062467;28;1218;-74
2022/03/21 08:45:40;;;;;;;;;;;;;;;;;;5065059;28;1219;-74
2022/03/21 08:48:05;;;;;;;;;;;;;;;;;;5065108;28;1152;-75
2022/03/21 08:50:34;;;;;;;;;;;;;;;;;;5073161;28;1281;-75
2022/03/21 08:53:00;;;;;;;;;;;;;;;;;;5081301;28;1987;-75
2022/03/21 08:55:25;;;;;;;;;;;;;;;;;;5087908;28;1164;-77
2022/03/21 08:57:51;;;;;;;;;;;;;;;;;;5084625;28;1155;-75
2022/03/21 09:00:16;;;;;;;;;;;;;;;;;;5083696;28;1144;-75
2022/03/21 09:02:42;;;;;;;;;;;;;;;;;;5084827;28;1045;-75
2022/03/21 09:05:10;;;;;;;;;;;;;;;;;;5086691;28;1080;-75
2022/03/21 09:07:35;;;;;;;;;;;;;;;;;;5081840;28;1148;-76
2022/03/21 09:10:00;;;;;;;;;;;;;;;;;;5082225;28;1190;-75
2022/03/21 09:12:25;;;;;;;;;;;;;;;;;;5086265;28;1091;-77
2022/03/21 09:14:50;;;;;;;;;;;;;;;;;;5080291;28;2008;-74
2022/03/21 09:17:16;;;;;;;;;;;;;;;;;;5065299;28;1231;-74
2022/03/21 09:19:41;;;;;;;;;;;;;;;;;;5071784;28;1222;-74
2022/03/21 09:22:06;;;;;;;;;;;;;;;;;;5062430;28;1164;-73
2022/03/21 09:24:33;;;;;;;;;;;;;;;;;;5080651;28;1249;-78
2022/03/21 09:26:59;;;;;;;;;;;;;;;;;;5083598;28;1315;-76
2022/03/21 09:29:25;;;;;;;;;;;;;;;;;;5078510;28;1265;-74
2022/03/21 09:31:50;;;;;;;;;;;;;;;;;;5064147;28;1206;-73
2022/03/21 09:34:16;;;;;;;;;;;;;;;;;;5064606;28;1918;-74
2022/03/21 09:36:42;;;;;;;;;;;;;;;;;;5062602;28;1279;-76
2022/03/21 09:39:08;;;;;;;;;;;;;;;;;;5061802;28;1292;-76
2022/03/21 09:41:37;;;;;;;;;;;;;;;;;;5066049;28;1171;-74
2022/03/21 09:44:03;;;;;;;;;;;;;;;;;;5062505;28;1373;-75
2022/03/21 09:46:29;;;;;;;;;;;;;;;;;;5066812;28;1097;-75
2022/03/21 09:48:55;;;;;;;;;;;;;;;;;;5066753;28;1176;-76
2022/03/21 09:51:22;;;;;;;;;;;;;;;;;;5069534;28;1316;-77
2022/03/21 09:53:48;;;;;;;;;;;;;;;;;;5079902;28;1955;-76
2022/03/21 09:56:14;;;;;;;;;;;;;;;;;;5068056;28;1342;-74
2022/03/21 09:58:40;;;;;;;;;;;;;;;;;;5080476;28;1270;-74
2022/03/21 10:01:05;;;;;;;;;;;;;;;;;;5087100;28;1237;-73
2022/03/21 10:03:33;;;;;;;;;;;;;;;;;;5085326;28;1156;-77
2022/03/21 10:05:59;;;;;;;;;;;;;;;;;;5065542;28;1115;-75
2022/03/21 10:08:29;;;;;;;;;;;;;;;;;;5062117;28;1159;-75
2022/03/21 10:10:58;;;;;;;;;;;;;;;;;;5071023;28;1214;-76
2022/03/21 10:13:27;;;;;;;;;;;;;;;;;;5089038;28;1889;-76
2022/03/21 10:16:12;;;;;;;;;;;;;;;;;;5091932;28;1555;-76
2022/03/21 10:18:37;;;;;;;;;;;;;;;;;;5090394;28;1368;-76
2022/03/21 10:21:13;;;;;;;;;;;;;;;;;;5084497;28;1190;-75
2022/03/21 10:23:39;;;;;;;;;;;;;;;;;;5079925;28;1322;-75
2022/03/21 10:26:23;;;;;;;;;;;;;;;;;;5086063;28;1125;-75
2022/03/21 10:28:50;;;;;;;;;;;;;;;;;;5080627;28;1322;-76
2022/03/21 10:31:32;;;;;;;;;;;;;;;;;;5093049;28;1251;-74
2022/03/21 10:34:01;;;;;;;;;;;;;;;;;;5093016;28;1887;-74
2022/03/21 10:36:26;;;;;;;;;;;;;;;;;;5092847;28;1243;-73
2022/03/21 10:39:05;;;;;;;;;;;;;;;;;;5081768;28;1176;-76
2022/03/21 10:41:35;;;;;;;;;;;;;;;;;;5095603;28;1092;-75
2022/03/21 10:44:00;;;;;;;;;;;;;;;;;;5070853;28;1491;-75
2022/03/21 10:46:25;;;;;;;;;;;;;;;;;;5056587;28;1277;-75
2022/03/21 10:49:00;;;;;;;;;;;;;;;;;;5079588;28;1382;-75
2022/03/21 10:51:25;;;;;;;;;;;;;;;;;;5085628;28;1120;-76
2022/03/21 10:53:53;;;;;;;;;;;;;;;;;;5069094;28;1953;-75
2022/03/21 10:56:18;;;;;;;;;;;;;;;;;;5073317;28;1231;-75
2022/03/21 10:58:44;;;;;;;;;;;;;;;;;;5078781;28;1013;-75
2022/03/21 11:01:12;;;;;;;;;;;;;;;;;;5074046;28;1230;-74
2022/03/21 11:03:49;;;;;;;;;;;;;;;;;;5060417;28;1360;-75
2022/03/21 11:06:14;;;;;;;;;;;;;;;;;;5048547;28;1241;-76
2022/03/21 11:08:40;;;;;;;;;;;;;;;;;;5058999;28;1063;-75
2022/03/21 11:11:08;;;;;;;;;;;;;;;;;;5062746;28;1248;-75
2022/03/21 11:13:33;;;;;;;;;;;;;;;;;;5058587;28;1984;-75
2022/03/21 11:15:59;;;;;;;;;;;;;;;;;;5061303;28;1172;-75
2022/03/21 11:18:27;;;;;;;;;;;;;;;;;;5071642;28;1306;-76
2022/03/21 11:20:53;;;;;;;;;;;;;;;;;;5082221;28;1310;-76
2022/03/21 11:23:19;;;;;;;;;;;;;;;;;;5079591;28;1123;-76
2022/03/21 11:25:50;;;;;;;;;;;;;;;;;;5081794;28;1205;-76
2022/03/21 11:28:38;;;;;;;;;;;;;;;;;;5084152;28;1293;-74
2022/03/21 11:31:14;;;;;;;;;;;;;;;;;;5085313;28;1266;-74
2022/03/21 11:34:03;;;;;;;;;;;;;;;;;;5083732;28;1913;-76
2022/03/21 11:36:30;;;;;;;;;;;;;;;;;;5086454;28;1234;-75
2022/03/21 11:39:00;;;;;;;;;;;;;;;;;;5079507;28;1328;-75
2022/03/21 11:41:26;;;;;;;;;;;;;;;;;;5087591;28;1218;-75
2022/03/21 11:44:04;;;;;;;;;;;;;;;;;;5081016;28;1227;-75
2022/03/21 11:46:39;;;;;;;;;;;;;;;;;;5087399;28;1786;-76
2022/03/21 11:49:28;;;;;;;;;;;;;;;;;;5082145;28;1415;-75
2022/03/21 11:51:53;;;;;;;;;;;;;;;;;;5082950;28;1247;-76
2022/03/21 11:54:24;;;;;;;;;;;;;;;;;;5086022;28;1889;-76
2022/03/21 11:56:51;;;;;;;;;;;;;;;;;;5083105;28;1040;-76
2022/03/21 11:59:47;;;;;;;;;;;;;;;;;;5084793;28;1265;-77
2022/03/21 12:02:13;;;;;;;;;;;;;;;;;;5080492;28;1341;-76
2022/03/21 12:04:39;;;;;;;;;;;;;;;;;;5085893;28;1190;-75
2022/03/21 12:07:14;;;;;;;;;;;;;;;;;;5081454;28;1136;-75
2022/03/21 12:09:44;;;;;;;;;;;;;;;;;;5083161;28;1430;-76
2022/03/21 12:12:12;;;;;;;;;;;;;;;;;;5083635;28;1188;-74
2022/03/21 12:14:44;;;;;;;;;;;;;;;;;;5064963;28;1979;-74
2022/03/21 12:17:12;;;;;;;;;;;;;;;;;;5062940;28;1325;-75
2022/03/21 12:19:51;;;;;;;;;;;;;;;;;;5064297;28;1457;-75
2022/03/21 12:22:35;;;;;;;;;;;;;;;;;;5062104;28;1211;-76
2022/03/21 12:25:10;;;;;;;;;;;;;;;;;;5081224;28;1385;-75
2022/03/21 12:27:45;;;;;;;;;;;;;;;;;;5094915;28;1220;-75
2022/03/21 12:30:20;;;;;;;;;;;;;;;;;;5083991;28;1314;-75
2022/03/21 12:32:58;;;;;;;;;;;;;;;;;;5066439;28;1188;-76
2022/03/21 12:35:32;;;;;;;;;;;;;;;;;;5088212;28;1917;-75
2022/03/21 12:38:09;;;;;;;;;;;;;;;;;;5061555;28;1173;-75
2022/03/21 12:40:36;;;;;;;;;;;;;;;;;;5107955;28;1099;-75
2022/03/21 12:43:03;;;;;;;;;;;;;;;;;;5097743;28;1230;-75
2022/03/21 12:45:31;;;;;;;;;;;;;;;;;;5090820;28;1440;-74
2022/03/21 12:48:03;;;;;;;;;;;;;;;;;;5105548;28;1041;-74
2022/03/21 12:50:28;;;;;;;;;;;;;;;;;;5089185;28;1348;-76
2022/03/21 12:52:58;;;;;;;;;;;;;;;;;;5074961;28;1262;-74
2022/03/21 12:55:24;;;;;;;;;;;;;;;;;;5089368;28;1885;-75
2022/03/21 12:58:03;;;;;;;;;;;;;;;;;;5082507;28;1277;-74
2022/03/21 13:00:34;;;;;;;;;;;;;;;;;;5068626;28;1305;-75
2022/03/21 13:03:06;;;;;;;;;;;;;;;;;;5063676;28;1214;-76
2022/03/21 13:11:19;;;;;;;;;;;;;;;;;;5096563;28;1051;-75
2022/03/21 13:13:44;;;;;;;;;;;;;;;;;;5101364;28;1890;-74
2022/03/21 13:16:10;;;;;;;;;;;;;;;;;;5055618;28;1200;-75
2022/03/21 13:18:36;;;;;;;;;;;;;;;;;;5048059;28;1299;-75
2022/03/21 13:21:03;;;;;;;;;;;;;;;;;;5064957;28;1167;-75
2022/03/21 13:23:28;;;;;;;;;;;;;;;;;;5083718;28;1164;-74
2022/03/21 13:26:06;;;;;;;;;;;;;;;;;;5071901;28;1246;-74
2022/03/21 13:28:33;;;;;;;;;;;;;;;;;;5081746;28;1218;-75
2022/03/21 13:31:09;;;;;;;;;;;;;;;;;;5099001;28;1011;-75
2022/03/21 13:33:36;;;;;;;;;;;;;;;;;;5084106;28;1973;-75
2022/03/21 13:36:03;;;;;;;;;;;;;;;;;;5067913;28;1291;-76
2022/03/21 13:38:30;;;;;;;;;;;;;;;;;;5079592;28;1156;-77
2022/03/21 13:40:55;;;;;;;;;;;;;;;;;;5085523;28;1156;-77
2022/03/21 13:43:22;;;;;;;;;;;;;;;;;;5100349;28;1219;-76
2022/03/21 13:45:48;;;;;;;;;;;;;;;;;;5105286;28;1269;-75
2022/03/21 13:48:32;;;;;;;;;;;;;;;;;;5099473;28;1191;-75
2022/03/21 13:51:05;;;;;;;;;;;;;;;;;;5086254;28;1164;-76
2022/03/21 13:53:30;;;;;;;;;;;;;;;;;;5081249;28;1893;-75
2022/03/21 13:55:57;;;;;;;;;;;;;;;;;;5064262;28;1168;-75
2022/03/21 13:58:24;;;;;;;;;;;;;;;;;;5066632;28;1199;-75
2022/03/21 14:00:50;;;;;;;;;;;;;;;;;;5086642;28;1191;-75
2022/03/21 14:03:36;;;;;;;;;;;;;;;;;;5046038;28;1380;-75
2022/03/21 14:06:05;;;;;;;;;;;;;;;;;;5092894;28;1108;-76
2022/03/21 14:08:31;;;;;;;;;;;;;;;;;;5079841;28;1167;-74
2022/03/21 14:11:02;;;;;;;;;;;;;;;;;;5086997;28;1266;-75
2022/03/21 14:13:28;;;;;;;;;;;;;;;;;;5085153;28;1949;-75
2022/03/21 14:15:58;;;;;;;;;;;;;;;;;;5069305;28;1303;-75
2022/03/21 14:18:24;;;;;;;;;;;;;;;;;;5098230;28;1249;-75
2022/03/21 14:21:02;;;;;;;;;;;;;;;;;;5088164;28;1271;-75
2022/03/21 14:23:28;;;;;;;;;;;;;;;;;;5080455;28;1143;-76
2022/03/21 14:28:38;;;;;;;;;;;;;;;;;;5083090;28;1193;-76
2022/03/21 14:31:04;;;;;;;;;;;;;;;;;;5064568;28;1284;-75
2022/03/21 14:33:30;;;;;;;;;;;;;;;;;;5065389;28;1918;-75
2022/03/21 14:35:56;;;;;;;;;;;;;;;;;;5066576;28;1342;-74
2022/03/21 14:38:21;;;;;;;;;;;;;;;;;;5060921;28;1269;-76
2022/03/21 14:40:47;;;;;;;;;;;;;;;;;;5062390;28;1220;-74
2022/03/21 14:43:12;;;;;;;;;;;;;;;;;;5080347;28;1313;-79
2022/03/21 14:45:38;;;;;;;;;;;;;;;;;;5082701;28;1172;-78
2022/03/21 14:48:03;;;;;;;;;;;;;;;;;;5072741;28;1261;-78
2022/03/21 14:50:29;;;;;;;;;;;;;;;;;;5099238;28;1128;-86
2022/03/21 14:53:02;;;;;;;;;;;;;;;;;;5049699;28;1324;-86
2022/03/21 14:55:27;;;;;;;;;;;;;;;;;;5089825;28;1939;-91
2022/03/21 14:57:53;;;;;;;;;;;;;;;;;;5095509;28;1112;-90
2022/03/21 15:00:18;;;;;;;;;;;;;;;;;;5071473;28;1282;-86
2022/03/21 15:02:45;;;;;;;;;;;;;;;;;;5094703;28;1120;-86
2022/03/21 15:05:11;;;;;;;;;;;;;;;;;;5080601;28;1281;-85
2022/03/21 15:07:48;;;;;;;;;;;;;;;;;;5054193;28;1267;-88
2022/03/21 15:10:26;;;;;;;;;;;;;;;;;;5048286;28;1303;-81
2022/03/21 15:13:12;;;;;;;;;;;;;;;;;;5055972;28;1305;-80
2022/03/21 15:15:38;;;;;;;;;;;;;;;;;;5078990;28;1037;-86
2022/03/21 15:18:04;;;;;;;;;;;;;;;;;;5062405;28;1208;-86
2022/03/21 15:20:34;;;;;;;;;;;;;;;;;;5057396;28;1262;-80
2022/03/21 15:23:03;;;;;;;;;;;;;;;;;;5059821;28;1194;-77
2022/03/21 15:25:29;;;;;;;;;;;;;;;;;;5073655;28;1261;-79
2022/03/21 15:27:55;;;;;;;;;;;;;;;;;;5072144;28;1322;-79
2022/03/21 15:30:21;;;;;;;;;;;;;;;;;;5066136;28;1289;-80
2022/03/21 15:32:48;;;;;;;;;;;;;;;;;;5094997;28;1211;-79
2022/03/21 15:35:13;;;;;;;;;;;;;;;;;;5074522;28;1985;-81
2022/03/21 15:43:09;;;;;;;;;;;;;;;;;;5093753;28;1082;-79
2022/03/21 15:45:35;;;;;;;;;;;;;;;;;;5070179;28;1366;-82
2022/03/21 15:48:04;;;;;;;;;;;;;;;;;;5064235;28;1251;-81
2022/03/21 15:50:29;;;;;;;;;;;;;;;;;;5061794;28;1451;-81
2022/03/21 15:52:55;;;;;;;;;;;;;;;;;;5056517;28;1424;-81
2022/03/21 15:55:22;;;;;;;;;;;;;;;;;;5081162;28;1885;-82
2022/03/21 15:57:52;;;;;;;;;;;;;;;;;;5069585;28;1313;-81
2022/03/21 16:00:17;;;;;;;;;;;;;;;;;;5065667;28;1329;-81
2022/03/21 16:02:43;;;;;;;;;;;;;;;;;;5060366;28;1238;-82
2022/03/21 16:05:10;;;;;;;;;;;;;;;;;;5081485;28;1139;-80
2022/03/21 16:07:36;;;;;;;;;;;;;;;;;;5066778;28;1255;-83
2022/03/21 16:10:07;;;;;;;;;;;;;;;;;;5064376;28;1366;-80
2022/03/21 16:12:32;;;;;;;;;;;;;;;;;;5082255;28;1273;-82
2022/03/21 16:14:59;;;;;;;;;;;;;;;;;;5079666;28;1890;-83
2022/03/21 16:17:25;;;;;;;;;;;;;;;;;;5063117;28;1299;-82
2022/03/21 16:19:51;;;;;;;;;;;;;;;;;;5071180;28;1187;-77
2022/03/21 16:22:16;;;;;;;;;;;;;;;;;;5067367;28;1231;-78
2022/03/21 16:24:41;;;;;;;;;;;;;;;;;;5091018;28;1279;-79
2022/03/21 16:27:07;;;;;;;;;;;;;;;;;;5086784;28;1136;-76
2022/03/21 16:29:33;;;;;;;;;;;;;;;;;;5093468;28;1156;-75
2022/03/21 16:32:06;;;;;;;;;;;;;;;;;;5078171;28;1178;-76
2022/03/21 16:34:32;;;;;;;;;;;;;;;;;;5073902;28;1901;-73
2022/03/21 16:36:58;;;;;;;;;;;;;;;;;;5064262;28;1273;-72
2022/03/21 16:39:24;;;;;;;;;;;;;;;;;;5055684;28;1620;-73
2022/03/21 16:41:49;;;;;;;;;;;;;;;;;;5080705;28;1148;-73
2022/03/21 16:44:15;;;;;;;;;;;;;;;;;;5058828;28;1185;-72
2022/03/21 16:46:41;;;;;;;;;;;;;;;;;;5077905;28;1219;-73
2022/03/21 16:49:09;;;;;;;;;;;;;;;;;;5077225;28;1184;-71
2022/03/21 16:51:38;;;;;;;;;;;;;;;;;;5082073;28;1147;-72
2022/03/21 16:54:15;;;;;;;;;;;;;;;;;;5041936;28;1886;-73
2022/03/21 16:56:40;;;;;;;;;;;;;;;;;;5045735;28;1239;-73
2022/03/21 16:59:09;;;;;;;;;;;;;;;;;;5058962;28;1203;-74
2022/03/21 17:01:35;;;;;;;;;;;;;;;;;;5080469;28;1111;-72
2022/03/21 17:04:01;;;;;;;;;;;;;;;;;;5081064;28;1180;-73
2022/03/21 17:06:34;;;;;;;;;;;;;;;;;;5045946;28;1314;-73
2022/03/21 17:09:01;;;;;;;;;;;;;;;;;;5076024;28;1365;-73
2022/03/21 17:11:26;;;;;;;;;;;;;;;;;;5060400;28;1421;-73
2022/03/21 17:13:53;;;;;;;;;;;;;;;;;;5053840;28;1936;-73
2022/03/21 17:16:24;;;;;;;;;;;;;;;;;;5071571;28;1136;-73
2022/03/21 17:24:02;;;;;;;;;;;;;;;;;;5086600;28;1024;-74
2022/03/21 17:26:28;;;;;;;;;;;;;;;;;;5094077;28;1163;-72
2022/03/21 17:28:53;;;;;;;;;;;;;;;;;;5062608;28;1303;-73
2022/03/21 17:31:19;;;;;;;;;;;;;;;;;;5054546;28;1298;-73
2022/03/21 17:33:45;;;;;;;;;;;;;;;;;;5103967;28;1906;-73
2022/03/21 17:36:14;;;;;;;;;;;;;;;;;;5104509;28;1393;-73
2022/03/21 17:38:40;;;;;;;;;;;;;;;;;;5054638;28;1406;-74
2022/03/21 17:41:06;;;;;;;;;;;;;;;;;;5067369;28;1128;-72
2022/03/21 17:43:31;;;;;;;;;;;;;;;;;;5049832;28;1440;-73
2022/03/21 17:45:58;;;;;;;;;;;;;;;;;;5066287;28;1361;-72